sensor_id;sensor_type;location;lat;lon;timestamp;P1;durP1;ratioP1;P2;durP2;ratioP2
38859;SDS011;24609;48.316;16.174;2022-09-09T00:09:50;0.70;;;0.50;;
38859;SDS011;24609;48.316;16.174;2022-09-09T00:15:52;4.50;;;0.60;;
38859;SDS011;24609;48.316;16.174;2022-09-09T00:21:14;0.52;;;0.50;;
38859;SDS011;24609;48.316;16.174;2022-09-09T00:23:50;0.90;;;0.60;;
38859;SDS011;24609;48.316;16.174;2022-09-09T00:31:18;0.67;;;0.50;;
38859;SDS011;24609;48.316;16.174;2022-09-09T00:33:49;0.93;;;0.60;;
38859;SDS011;24609;48.316;16.174;2022-09-09T00:36:18;0.68;;;0.50;;
38859;SDS011;24609;48.316;16.174;2022-09-09T00:38:51;2.63;;;0.60;;
38859;SDS011;24609;48.316;16.174;2022-09-09T00:49:42;0.65;;;0.50;;
38859;SDS011;24609;48.316;16.174;2022-09-09T00:58:06;0.95;;;0.40;;
38859;SDS011;24609;48.316;16.174;2022-09-09T01:01:18;0.75;;;0.50;;
38859;SDS011;24609;48.316;16.174;2022-09-09T01:11:43;0.90;;;0.63;;
38859;SDS011;24609;48.316;16.174;2022-09-09T01:17:07;0.85;;;0.60;;
38859;SDS011;24609;48.316;16.174;2022-09-09T01:25:22;0.50;;;0.50;;
38859;SDS011;24609;48.316;16.174;2022-09-09T01:27:57;0.68;;;0.40;;
38859;SDS011;24609;48.316;16.174;2022-09-09T01:30:26;0.55;;;0.50;;
38859;SDS011;24609;48.316;16.174;2022-09-09T01:32:54;0.75;;;0.60;;
38859;SDS011;24609;48.316;16.174;2022-09-09T01:35:32;3.10;;;0.70;;
38859;SDS011;24609;48.316;16.174;2022-09-09T01:38:09;0.55;;;0.40;;
38859;SDS011;24609;48.316;16.174;2022-09-09T01:40:35;0.80;;;0.50;;
38859;SDS011;24609;48.316;16.174;2022-09-09T01:43:01;0.55;;;0.40;;
38859;SDS011;24609;48.316;16.174;2022-09-09T01:45:27;4.88;;;0.70;;
38859;SDS011;24609;48.316;16.174;2022-09-09T01:47:53;0.30;;;0.30;;
38859;SDS011;24609;48.316;16.174;2022-09-09T01:50:19;0.77;;;0.50;;
38859;SDS011;24609;48.316;16.174;2022-09-09T01:52:46;0.77;;;0.50;;
38859;SDS011;24609;48.316;16.174;2022-09-09T01:55:15;5.18;;;0.75;;
38859;SDS011;24609;48.316;16.174;2022-09-09T01:57:44;2.00;;;0.50;;
38859;SDS011;24609;48.316;16.174;2022-09-09T02:00:25;0.40;;;0.40;;
38859;SDS011;24609;48.316;16.174;2022-09-09T02:03:04;0.65;;;0.50;;
38859;SDS011;24609;48.316;16.174;2022-09-09T02:08:21;0.77;;;0.63;;
38859;SDS011;24609;48.316;16.174;2022-09-09T02:11:08;2.97;;;0.60;;
38859;SDS011;24609;48.316;16.174;2022-09-09T02:13:38;1.38;;;0.50;;
38859;SDS011;24609;48.316;16.174;2022-09-09T02:16:09;0.70;;;0.50;;
38859;SDS011;24609;48.316;16.174;2022-09-09T02:18:49;2.60;;;0.80;;
38859;SDS011;24609;48.316;16.174;2022-09-09T02:21:18;0.50;;;0.50;;
38859;SDS011;24609;48.316;16.174;2022-09-09T02:23:44;2.60;;;0.55;;
38859;SDS011;24609;48.316;16.174;2022-09-09T02:26:13;4.88;;;0.63;;
38859;SDS011;24609;48.316;16.174;2022-09-09T02:28:45;0.60;;;0.50;;
38859;SDS011;24609;48.316;16.174;2022-09-09T02:31:12;2.20;;;0.77;;
38859;SDS011;24609;48.316;16.174;2022-09-09T02:33:44;0.60;;;0.50;;
38859;SDS011;24609;48.316;16.174;2022-09-09T02:36:17;0.70;;;0.60;;
38859;SDS011;24609;48.316;16.174;2022-09-09T02:38:47;0.32;;;0.32;;
38859;SDS011;24609;48.316;16.174;2022-09-09T02:41:16;1.60;;;0.82;;
38859;SDS011;24609;48.316;16.174;2022-09-09T02:43:46;1.35;;;0.70;;
38859;SDS011;24609;48.316;16.174;2022-09-09T02:49:09;1.65;;;0.77;;
38859;SDS011;24609;48.316;16.174;2022-09-09T02:54:16;2.13;;;0.80;;
38859;SDS011;24609;48.316;16.174;2022-09-09T02:57:12;0.60;;;0.60;;
38859;SDS011;24609;48.316;16.174;2022-09-09T02:59:43;0.73;;;0.60;;
38859;SDS011;24609;48.316;16.174;2022-09-09T03:02:09;0.60;;;0.50;;
38859;SDS011;24609;48.316;16.174;2022-09-09T03:04:36;2.47;;;0.68;;
38859;SDS011;24609;48.316;16.174;2022-09-09T03:07:03;4.05;;;0.70;;
38859;SDS011;24609;48.316;16.174;2022-09-09T03:09:28;1.88;;;1.00;;
38859;SDS011;24609;48.316;16.174;2022-09-09T03:11:55;0.90;;;0.73;;
38859;SDS011;24609;48.316;16.174;2022-09-09T03:14:21;1.38;;;0.88;;
38859;SDS011;24609;48.316;16.174;2022-09-09T03:16:50;0.98;;;0.70;;
38859;SDS011;24609;48.316;16.174;2022-09-09T03:19:16;0.85;;;0.68;;
38859;SDS011;24609;48.316;16.174;2022-09-09T03:21:43;1.95;;;0.70;;
38859;SDS011;24609;48.316;16.174;2022-09-09T03:24:10;1.50;;;0.90;;
38859;SDS011;24609;48.316;16.174;2022-09-09T03:26:36;1.33;;;0.60;;
38859;SDS011;24609;48.316;16.174;2022-09-09T03:29:02;4.10;;;1.00;;
38859;SDS011;24609;48.316;16.174;2022-09-09T03:31:32;1.10;;;1.00;;
38859;SDS011;24609;48.316;16.174;2022-09-09T03:33:58;1.52;;;0.82;;
38859;SDS011;24609;48.316;16.174;2022-09-09T03:36:25;0.82;;;0.70;;
38859;SDS011;24609;48.316;16.174;2022-09-09T03:38:51;1.67;;;0.55;;
38859;SDS011;24609;48.316;16.174;2022-09-09T03:41:19;1.25;;;0.80;;
38859;SDS011;24609;48.316;16.174;2022-09-09T03:43:46;1.50;;;0.75;;
38859;SDS011;24609;48.316;16.174;2022-09-09T03:46:11;1.17;;;1.08;;
38859;SDS011;24609;48.316;16.174;2022-09-09T03:48:37;1.65;;;1.00;;
38859;SDS011;24609;48.316;16.174;2022-09-09T03:51:02;2.83;;;0.88;;
38859;SDS011;24609;48.316;16.174;2022-09-09T03:53:28;0.95;;;0.80;;
38859;SDS011;24609;48.316;16.174;2022-09-09T03:55:55;1.83;;;1.00;;
38859;SDS011;24609;48.316;16.174;2022-09-09T03:58:23;1.97;;;1.10;;
38859;SDS011;24609;48.316;16.174;2022-09-09T04:03:46;0.80;;;0.60;;
38859;SDS011;24609;48.316;16.174;2022-09-09T04:06:12;1.05;;;0.70;;
38859;SDS011;24609;48.316;16.174;2022-09-09T04:08:39;1.73;;;0.98;;
38859;SDS011;24609;48.316;16.174;2022-09-09T04:11:06;1.10;;;0.70;;
38859;SDS011;24609;48.316;16.174;2022-09-09T04:13:36;0.85;;;0.80;;
38859;SDS011;24609;48.316;16.174;2022-09-09T04:16:04;1.25;;;0.57;;
38859;SDS011;24609;48.316;16.174;2022-09-09T04:18:30;1.13;;;0.82;;
38859;SDS011;24609;48.316;16.174;2022-09-09T04:20:56;0.75;;;0.60;;
38859;SDS011;24609;48.316;16.174;2022-09-09T04:23:23;1.25;;;0.77;;
38859;SDS011;24609;48.316;16.174;2022-09-09T04:25:51;2.80;;;1.15;;
38859;SDS011;24609;48.316;16.174;2022-09-09T04:28:18;0.90;;;0.80;;
38859;SDS011;24609;48.316;16.174;2022-09-09T04:30:45;1.52;;;0.95;;
38859;SDS011;24609;48.316;16.174;2022-09-09T04:33:11;1.00;;;0.70;;
38859;SDS011;24609;48.316;16.174;2022-09-09T04:35:38;0.70;;;0.60;;
38859;SDS011;24609;48.316;16.174;2022-09-09T04:38:05;0.93;;;0.70;;
38859;SDS011;24609;48.316;16.174;2022-09-09T04:40:34;1.17;;;0.82;;
38859;SDS011;24609;48.316;16.174;2022-09-09T04:43:00;1.08;;;0.82;;
38859;SDS011;24609;48.316;16.174;2022-09-09T04:45:28;1.20;;;1.02;;
38859;SDS011;24609;48.316;16.174;2022-09-09T04:47:55;1.73;;;0.80;;
38859;SDS011;24609;48.316;16.174;2022-09-09T04:50:20;1.25;;;0.85;;
38859;SDS011;24609;48.316;16.174;2022-09-09T04:52:46;1.23;;;0.95;;
38859;SDS011;24609;48.316;16.174;2022-09-09T04:55:12;3.97;;;1.23;;
38859;SDS011;24609;48.316;16.174;2022-09-09T04:57:38;1.17;;;1.05;;
38859;SDS011;24609;48.316;16.174;2022-09-09T05:00:04;3.03;;;0.95;;
38859;SDS011;24609;48.316;16.174;2022-09-09T05:02:30;6.35;;;1.48;;
38859;SDS011;24609;48.316;16.174;2022-09-09T05:04:57;1.45;;;0.93;;
38859;SDS011;24609;48.316;16.174;2022-09-09T05:07:23;2.03;;;0.95;;
38859;SDS011;24609;48.316;16.174;2022-09-09T05:09:51;1.15;;;0.80;;
38859;SDS011;24609;48.316;16.174;2022-09-09T05:12:16;1.42;;;0.90;;
38859;SDS011;24609;48.316;16.174;2022-09-09T05:14:43;1.92;;;1.25;;
38859;SDS011;24609;48.316;16.174;2022-09-09T05:17:09;5.72;;;1.40;;
38859;SDS011;24609;48.316;16.174;2022-09-09T05:19:35;2.90;;;1.90;;
38859;SDS011;24609;48.316;16.174;2022-09-09T05:22:01;6.25;;;3.47;;
38859;SDS011;24609;48.316;16.174;2022-09-09T05:24:27;3.50;;;2.38;;
38859;SDS011;24609;48.316;16.174;2022-09-09T05:26:53;5.90;;;3.58;;
38859;SDS011;24609;48.316;16.174;2022-09-09T05:29:19;6.20;;;3.08;;
38859;SDS011;24609;48.316;16.174;2022-09-09T05:31:47;9.80;;;1.90;;
38859;SDS011;24609;48.316;16.174;2022-09-09T05:34:13;3.55;;;1.52;;
38859;SDS011;24609;48.316;16.174;2022-09-09T05:36:38;1.83;;;1.40;;
38859;SDS011;24609;48.316;16.174;2022-09-09T05:39:04;2.15;;;1.20;;
38859;SDS011;24609;48.316;16.174;2022-09-09T05:41:30;3.40;;;1.50;;
38859;SDS011;24609;48.316;16.174;2022-09-09T05:43:56;1.50;;;0.98;;
38859;SDS011;24609;48.316;16.174;2022-09-09T05:46:23;1.88;;;1.00;;
38859;SDS011;24609;48.316;16.174;2022-09-09T05:48:50;4.72;;;2.30;;
38859;SDS011;24609;48.316;16.174;2022-09-09T05:51:18;2.90;;;2.28;;
38859;SDS011;24609;48.316;16.174;2022-09-09T05:56:16;1.75;;;1.20;;
38859;SDS011;24609;48.316;16.174;2022-09-09T05:58:43;1.55;;;1.33;;
38859;SDS011;24609;48.316;16.174;2022-09-09T06:01:15;3.13;;;0.90;;
38859;SDS011;24609;48.316;16.174;2022-09-09T06:03:43;1.42;;;1.10;;
38859;SDS011;24609;48.316;16.174;2022-09-09T06:06:11;0.93;;;0.82;;
38859;SDS011;24609;48.316;16.174;2022-09-09T06:08:40;2.25;;;1.10;;
38859;SDS011;24609;48.316;16.174;2022-09-09T06:11:13;2.83;;;0.85;;
38859;SDS011;24609;48.316;16.174;2022-09-09T06:13:41;1.38;;;0.90;;
38859;SDS011;24609;48.316;16.174;2022-09-09T06:16:11;0.50;;;0.50;;
38859;SDS011;24609;48.316;16.174;2022-09-09T06:18:41;6.95;;;1.13;;
38859;SDS011;24609;48.316;16.174;2022-09-09T06:21:50;1.55;;;0.80;;
38859;SDS011;24609;48.316;16.174;2022-09-09T06:24:03;3.03;;;0.85;;
38859;SDS011;24609;48.316;16.174;2022-09-09T06:26:34;2.38;;;0.98;;
38859;SDS011;24609;48.316;16.174;2022-09-09T06:29:07;2.80;;;0.80;;
38859;SDS011;24609;48.316;16.174;2022-09-09T06:31:33;2.28;;;0.80;;
38859;SDS011;24609;48.316;16.174;2022-09-09T06:34:01;1.90;;;0.77;;
38859;SDS011;24609;48.316;16.174;2022-09-09T06:36:30;1.40;;;0.88;;
38859;SDS011;24609;48.316;16.174;2022-09-09T06:38:57;0.60;;;0.60;;
38859;SDS011;24609;48.316;16.174;2022-09-09T06:41:24;1.58;;;0.70;;
38859;SDS011;24609;48.316;16.174;2022-09-09T06:43:52;1.40;;;0.70;;
38859;SDS011;24609;48.316;16.174;2022-09-09T06:46:19;1.00;;;0.80;;
38859;SDS011;24609;48.316;16.174;2022-09-09T06:48:52;4.45;;;1.08;;
38859;SDS011;24609;48.316;16.174;2022-09-09T06:51:21;1.98;;;0.90;;
38859;SDS011;24609;48.316;16.174;2022-09-09T06:53:49;1.55;;;0.73;;
38859;SDS011;24609;48.316;16.174;2022-09-09T06:58:42;1.13;;;0.60;;
38859;SDS011;24609;48.316;16.174;2022-09-09T07:01:15;0.88;;;0.73;;
38859;SDS011;24609;48.316;16.174;2022-09-09T07:03:45;2.20;;;0.85;;
38859;SDS011;24609;48.316;16.174;2022-09-09T07:06:19;5.18;;;0.82;;
38859;SDS011;24609;48.316;16.174;2022-09-09T07:08:49;2.03;;;0.90;;
38859;SDS011;24609;48.316;16.174;2022-09-09T07:11:23;0.77;;;0.70;;
38859;SDS011;24609;48.316;16.174;2022-09-09T07:13:53;1.42;;;0.90;;
38859;SDS011;24609;48.316;16.174;2022-09-09T07:16:20;2.05;;;0.90;;
38859;SDS011;24609;48.316;16.174;2022-09-09T07:18:48;0.60;;;0.55;;
38859;SDS011;24609;48.316;16.174;2022-09-09T07:21:15;0.85;;;0.57;;
38859;SDS011;24609;48.316;16.174;2022-09-09T07:23:42;1.00;;;0.90;;
38859;SDS011;24609;48.316;16.174;2022-09-09T07:26:09;1.27;;;0.88;;
38859;SDS011;24609;48.316;16.174;2022-09-09T07:28:36;1.77;;;0.88;;
38859;SDS011;24609;48.316;16.174;2022-09-09T07:31:03;2.25;;;0.70;;
38859;SDS011;24609;48.316;16.174;2022-09-09T07:33:31;1.85;;;0.85;;
38859;SDS011;24609;48.316;16.174;2022-09-09T07:36:02;0.60;;;0.60;;
38859;SDS011;24609;48.316;16.174;2022-09-09T07:38:29;3.83;;;0.98;;
38859;SDS011;24609;48.316;16.174;2022-09-09T07:41:02;0.85;;;0.70;;
38859;SDS011;24609;48.316;16.174;2022-09-09T07:43:30;3.17;;;1.20;;
38859;SDS011;24609;48.316;16.174;2022-09-09T07:45:59;3.33;;;0.80;;
38859;SDS011;24609;48.316;16.174;2022-09-09T07:48:26;1.50;;;0.88;;
38859;SDS011;24609;48.316;16.174;2022-09-09T07:50:52;2.10;;;0.75;;
38859;SDS011;24609;48.316;16.174;2022-09-09T07:53:27;3.22;;;0.85;;
38859;SDS011;24609;48.316;16.174;2022-09-09T07:55:53;1.15;;;0.93;;
38859;SDS011;24609;48.316;16.174;2022-09-09T07:58:20;1.17;;;0.70;;
38859;SDS011;24609;48.316;16.174;2022-09-09T08:00:46;2.05;;;0.80;;
38859;SDS011;24609;48.316;16.174;2022-09-09T08:03:11;0.70;;;0.70;;
38859;SDS011;24609;48.316;16.174;2022-09-09T08:05:38;1.02;;;0.77;;
38859;SDS011;24609;48.316;16.174;2022-09-09T08:08:04;4.25;;;1.00;;
38859;SDS011;24609;48.316;16.174;2022-09-09T08:10:30;1.48;;;0.68;;
38859;SDS011;24609;48.316;16.174;2022-09-09T08:12:55;1.38;;;0.70;;
38859;SDS011;24609;48.316;16.174;2022-09-09T08:15:21;3.45;;;0.95;;
38859;SDS011;24609;48.316;16.174;2022-09-09T08:17:47;0.57;;;0.50;;
38859;SDS011;24609;48.316;16.174;2022-09-09T08:20:12;0.80;;;0.50;;
38859;SDS011;24609;48.316;16.174;2022-09-09T08:22:38;1.00;;;0.80;;
38859;SDS011;24609;48.316;16.174;2022-09-09T08:25:04;2.63;;;0.85;;
38859;SDS011;24609;48.316;16.174;2022-09-09T08:27:31;3.17;;;1.17;;
38859;SDS011;24609;48.316;16.174;2022-09-09T08:29:57;0.75;;;0.57;;
38859;SDS011;24609;48.316;16.174;2022-09-09T08:32:23;0.68;;;0.60;;
38859;SDS011;24609;48.316;16.174;2022-09-09T08:34:49;2.45;;;1.02;;
38859;SDS011;24609;48.316;16.174;2022-09-09T08:37:16;1.02;;;0.80;;
38859;SDS011;24609;48.316;16.174;2022-09-09T08:39:41;1.25;;;0.88;;
38859;SDS011;24609;48.316;16.174;2022-09-09T08:42:11;2.28;;;1.08;;
38859;SDS011;24609;48.316;16.174;2022-09-09T08:52:39;2.03;;;0.75;;
38859;SDS011;24609;48.316;16.174;2022-09-09T08:58:25;1.27;;;0.90;;
38859;SDS011;24609;48.316;16.174;2022-09-09T09:11:52;1.35;;;0.70;;
38859;SDS011;24609;48.316;16.174;2022-09-09T09:14:26;0.50;;;0.50;;
38859;SDS011;24609;48.316;16.174;2022-09-09T09:16:59;2.10;;;0.65;;
38859;SDS011;24609;48.316;16.174;2022-09-09T09:19:34;0.82;;;0.55;;
38859;SDS011;24609;48.316;16.174;2022-09-09T09:22:22;1.30;;;0.63;;
38859;SDS011;24609;48.316;16.174;2022-09-09T09:27:25;8.18;;;0.63;;
38859;SDS011;24609;48.316;16.174;2022-09-09T09:30:05;1.65;;;0.60;;
38859;SDS011;24609;48.316;16.174;2022-09-09T09:32:43;2.47;;;0.47;;
38859;SDS011;24609;48.316;16.174;2022-09-09T09:35:25;1.27;;;0.80;;
38859;SDS011;24609;48.316;16.174;2022-09-09T09:37:51;2.97;;;0.40;;
38859;SDS011;24609;48.316;16.174;2022-09-09T09:40:18;0.90;;;0.50;;
38859;SDS011;24609;48.316;16.174;2022-09-09T09:45:31;0.50;;;0.40;;
38859;SDS011;24609;48.316;16.174;2022-09-09T09:48:04;2.13;;;0.50;;
38859;SDS011;24609;48.316;16.174;2022-09-09T09:50:32;0.63;;;0.38;;
38859;SDS011;24609;48.316;16.174;2022-09-09T09:53:00;1.98;;;0.57;;
38859;SDS011;24609;48.316;16.174;2022-09-09T09:55:29;0.95;;;0.65;;
38859;SDS011;24609;48.316;16.174;2022-09-09T09:58:02;2.08;;;0.88;;
38859;SDS011;24609;48.316;16.174;2022-09-09T10:00:32;0.52;;;0.50;;
38859;SDS011;24609;48.316;16.174;2022-09-09T10:03:00;2.67;;;0.73;;
38859;SDS011;24609;48.316;16.174;2022-09-09T10:05:27;5.28;;;0.52;;
38859;SDS011;24609;48.316;16.174;2022-09-09T10:16:22;1.33;;;0.50;;
38859;SDS011;24609;48.316;16.174;2022-09-09T10:19:12;1.02;;;0.65;;
38859;SDS011;24609;48.316;16.174;2022-09-09T10:32:38;0.55;;;0.55;;
38859;SDS011;24609;48.316;16.174;2022-09-09T10:40:32;0.90;;;0.60;;
38859;SDS011;24609;48.316;16.174;2022-09-09T10:45:58;1.20;;;0.60;;
38859;SDS011;24609;48.316;16.174;2022-09-09T10:48:37;1.25;;;0.70;;
38859;SDS011;24609;48.316;16.174;2022-09-09T10:57:04;1.45;;;0.60;;
38859;SDS011;24609;48.316;16.174;2022-09-09T10:59:47;0.73;;;0.60;;
38859;SDS011;24609;48.316;16.174;2022-09-09T11:02:19;1.48;;;0.90;;
38859;SDS011;24609;48.316;16.174;2022-09-09T11:04:58;0.82;;;0.70;;
38859;SDS011;24609;48.316;16.174;2022-09-09T11:07:37;1.80;;;0.75;;
38859;SDS011;24609;48.316;16.174;2022-09-09T11:10:07;1.27;;;0.65;;
38859;SDS011;24609;48.316;16.174;2022-09-09T11:12:43;1.10;;;0.70;;
38859;SDS011;24609;48.316;16.174;2022-09-09T11:15:14;2.85;;;0.68;;
38859;SDS011;24609;48.316;16.174;2022-09-09T11:17:52;9.50;;;1.23;;
38859;SDS011;24609;48.316;16.174;2022-09-09T11:20:21;1.55;;;0.70;;
38859;SDS011;24609;48.316;16.174;2022-09-09T11:25:29;3.67;;;1.05;;
38859;SDS011;24609;48.316;16.174;2022-09-09T11:42:42;1.40;;;0.88;;
38859;SDS011;24609;48.316;16.174;2022-09-09T11:45:09;2.38;;;1.08;;
38859;SDS011;24609;48.316;16.174;2022-09-09T11:47:36;1.10;;;0.63;;
38859;SDS011;24609;48.316;16.174;2022-09-09T11:52:38;2.38;;;0.82;;
38859;SDS011;24609;48.316;16.174;2022-09-09T11:55:11;2.20;;;0.77;;
38859;SDS011;24609;48.316;16.174;2022-09-09T11:57:37;1.88;;;0.95;;
38859;SDS011;24609;48.316;16.174;2022-09-09T12:00:04;3.10;;;0.90;;
38859;SDS011;24609;48.316;16.174;2022-09-09T12:02:31;2.00;;;1.05;;
38859;SDS011;24609;48.316;16.174;2022-09-09T12:07:34;2.70;;;1.10;;
38859;SDS011;24609;48.316;16.174;2022-09-09T12:12:38;1.15;;;0.85;;
38859;SDS011;24609;48.316;16.174;2022-09-09T12:17:37;1.95;;;0.70;;
38859;SDS011;24609;48.316;16.174;2022-09-09T12:20:16;0.93;;;0.65;;
38859;SDS011;24609;48.316;16.174;2022-09-09T12:31:48;6.18;;;0.85;;
38859;SDS011;24609;48.316;16.174;2022-09-09T12:34:24;2.10;;;0.90;;
38859;SDS011;24609;48.316;16.174;2022-09-09T12:37:21;1.23;;;0.55;;
38859;SDS011;24609;48.316;16.174;2022-09-09T12:39:59;1.27;;;0.80;;
38859;SDS011;24609;48.316;16.174;2022-09-09T12:42:45;2.50;;;0.80;;
38859;SDS011;24609;48.316;16.174;2022-09-09T12:45:16;1.30;;;0.75;;
38859;SDS011;24609;48.316;16.174;2022-09-09T12:48:05;0.82;;;0.75;;
38859;SDS011;24609;48.316;16.174;2022-09-09T12:50:37;1.65;;;0.80;;
38859;SDS011;24609;48.316;16.174;2022-09-09T12:53:11;3.83;;;0.80;;
38859;SDS011;24609;48.316;16.174;2022-09-09T12:55:51;1.50;;;0.70;;
38859;SDS011;24609;48.316;16.174;2022-09-09T12:58:20;1.15;;;0.77;;
38859;SDS011;24609;48.316;16.174;2022-09-09T13:00:50;0.95;;;0.77;;
38859;SDS011;24609;48.316;16.174;2022-09-09T13:03:18;2.35;;;0.70;;
38859;SDS011;24609;48.316;16.174;2022-09-09T13:05:46;2.53;;;0.80;;
38859;SDS011;24609;48.316;16.174;2022-09-09T13:08:12;1.88;;;0.70;;
38859;SDS011;24609;48.316;16.174;2022-09-09T13:13:27;0.63;;;0.55;;
38859;SDS011;24609;48.316;16.174;2022-09-09T13:16:00;1.95;;;0.95;;
38859;SDS011;24609;48.316;16.174;2022-09-09T13:18:31;4.22;;;0.95;;
38859;SDS011;24609;48.316;16.174;2022-09-09T13:20:59;1.55;;;0.93;;
38859;SDS011;24609;48.316;16.174;2022-09-09T13:23:33;1.75;;;0.80;;
38859;SDS011;24609;48.316;16.174;2022-09-09T13:26:19;3.45;;;0.90;;
38859;SDS011;24609;48.316;16.174;2022-09-09T13:28:47;1.10;;;0.70;;
38859;SDS011;24609;48.316;16.174;2022-09-09T13:31:24;4.05;;;1.00;;
38859;SDS011;24609;48.316;16.174;2022-09-09T13:33:54;1.17;;;0.88;;
38859;SDS011;24609;48.316;16.174;2022-09-09T13:36:30;3.28;;;0.88;;
38859;SDS011;24609;48.316;16.174;2022-09-09T13:38:58;2.92;;;0.90;;
38859;SDS011;24609;48.316;16.174;2022-09-09T13:41:43;3.08;;;0.70;;
38859;SDS011;24609;48.316;16.174;2022-09-09T13:44:17;1.10;;;0.68;;
38859;SDS011;24609;48.316;16.174;2022-09-09T13:46:58;1.85;;;1.00;;
38859;SDS011;24609;48.316;16.174;2022-09-09T13:49:29;2.25;;;1.17;;
38859;SDS011;24609;48.316;16.174;2022-09-09T13:52:31;3.38;;;1.20;;
38859;SDS011;24609;48.316;16.174;2022-09-09T13:54:52;4.25;;;1.00;;
38859;SDS011;24609;48.316;16.174;2022-09-09T13:57:20;1.20;;;0.63;;
38859;SDS011;24609;48.316;16.174;2022-09-09T13:59:47;0.70;;;0.63;;
38859;SDS011;24609;48.316;16.174;2022-09-09T14:02:14;1.50;;;0.60;;
38859;SDS011;24609;48.316;16.174;2022-09-09T14:04:41;1.10;;;0.70;;
38859;SDS011;24609;48.316;16.174;2022-09-09T14:07:16;4.28;;;0.80;;
38859;SDS011;24609;48.316;16.174;2022-09-09T14:09:43;1.80;;;0.60;;
38859;SDS011;24609;48.316;16.174;2022-09-09T14:12:14;2.10;;;0.65;;
38859;SDS011;24609;48.316;16.174;2022-09-09T14:14:40;1.40;;;0.70;;
38859;SDS011;24609;48.316;16.174;2022-09-09T14:17:09;1.77;;;0.80;;
38859;SDS011;24609;48.316;16.174;2022-09-09T14:19:35;1.23;;;0.50;;
38859;SDS011;24609;48.316;16.174;2022-09-09T14:22:02;1.33;;;0.70;;
38859;SDS011;24609;48.316;16.174;2022-09-09T14:24:28;0.98;;;0.60;;
38859;SDS011;24609;48.316;16.174;2022-09-09T14:26:54;0.90;;;0.57;;
38859;SDS011;24609;48.316;16.174;2022-09-09T14:29:20;1.17;;;0.75;;
38859;SDS011;24609;48.316;16.174;2022-09-09T14:31:45;1.38;;;0.77;;
38859;SDS011;24609;48.316;16.174;2022-09-09T14:34:12;1.23;;;0.80;;
38859;SDS011;24609;48.316;16.174;2022-09-09T14:36:39;0.73;;;0.60;;
38859;SDS011;24609;48.316;16.174;2022-09-09T14:39:05;1.88;;;0.80;;
38859;SDS011;24609;48.316;16.174;2022-09-09T14:41:31;1.15;;;0.65;;
38859;SDS011;24609;48.316;16.174;2022-09-09T14:43:57;2.78;;;0.80;;
38859;SDS011;24609;48.316;16.174;2022-09-09T14:46:22;2.33;;;0.98;;
38859;SDS011;24609;48.316;16.174;2022-09-09T14:48:48;3.63;;;1.02;;
38859;SDS011;24609;48.316;16.174;2022-09-09T14:53:42;1.42;;;0.93;;
38859;SDS011;24609;48.316;16.174;2022-09-09T14:56:11;1.50;;;0.90;;
38859;SDS011;24609;48.316;16.174;2022-09-09T14:58:38;1.17;;;0.88;;
38859;SDS011;24609;48.316;16.174;2022-09-09T15:01:04;2.03;;;0.90;;
38859;SDS011;24609;48.316;16.174;2022-09-09T15:03:32;1.65;;;0.90;;
38859;SDS011;24609;48.316;16.174;2022-09-09T15:05:58;1.27;;;0.93;;
38859;SDS011;24609;48.316;16.174;2022-09-09T15:08:29;1.27;;;1.05;;
38859;SDS011;24609;48.316;16.174;2022-09-09T15:10:58;1.88;;;1.13;;
38859;SDS011;24609;48.316;16.174;2022-09-09T15:13:26;2.22;;;1.02;;
38859;SDS011;24609;48.316;16.174;2022-09-09T15:15:51;2.22;;;1.20;;
38859;SDS011;24609;48.316;16.174;2022-09-09T15:18:19;3.88;;;1.20;;
38859;SDS011;24609;48.316;16.174;2022-09-09T15:20:45;2.28;;;1.00;;
38859;SDS011;24609;48.316;16.174;2022-09-09T15:23:11;0.93;;;0.77;;
38859;SDS011;24609;48.316;16.174;2022-09-09T15:25:37;1.77;;;0.70;;
38859;SDS011;24609;48.316;16.174;2022-09-09T15:28:03;1.40;;;1.00;;
38859;SDS011;24609;48.316;16.174;2022-09-09T15:30:29;2.25;;;0.80;;
38859;SDS011;24609;48.316;16.174;2022-09-09T15:32:54;1.35;;;0.80;;
38859;SDS011;24609;48.316;16.174;2022-09-09T15:35:20;1.55;;;1.08;;
38859;SDS011;24609;48.316;16.174;2022-09-09T15:37:45;1.55;;;0.73;;
38859;SDS011;24609;48.316;16.174;2022-09-09T15:40:11;2.05;;;0.75;;
38859;SDS011;24609;48.316;16.174;2022-09-09T15:42:37;1.42;;;0.57;;
38859;SDS011;24609;48.316;16.174;2022-09-09T15:45:03;1.48;;;0.63;;
38859;SDS011;24609;48.316;16.174;2022-09-09T15:47:30;0.98;;;0.60;;
38859;SDS011;24609;48.316;16.174;2022-09-09T15:49:57;2.25;;;0.70;;
38859;SDS011;24609;48.316;16.174;2022-09-09T15:52:22;0.77;;;0.55;;
38859;SDS011;24609;48.316;16.174;2022-09-09T15:54:48;1.27;;;0.68;;
38859;SDS011;24609;48.316;16.174;2022-09-09T15:57:14;0.60;;;0.50;;
38859;SDS011;24609;48.316;16.174;2022-09-09T15:59:39;2.85;;;0.68;;
38859;SDS011;24609;48.316;16.174;2022-09-09T16:02:05;1.00;;;0.68;;
38859;SDS011;24609;48.316;16.174;2022-09-09T16:04:31;1.40;;;0.70;;
38859;SDS011;24609;48.316;16.174;2022-09-09T16:07:00;2.10;;;0.73;;
38859;SDS011;24609;48.316;16.174;2022-09-09T16:09:28;1.55;;;0.80;;
38859;SDS011;24609;48.316;16.174;2022-09-09T16:11:57;1.05;;;0.63;;
38859;SDS011;24609;48.316;16.174;2022-09-09T16:14:25;2.17;;;0.80;;
38859;SDS011;24609;48.316;16.174;2022-09-09T16:16:52;1.55;;;0.93;;
38859;SDS011;24609;48.316;16.174;2022-09-09T16:19:18;1.73;;;0.70;;
38859;SDS011;24609;48.316;16.174;2022-09-09T16:21:45;2.75;;;0.70;;
38859;SDS011;24609;48.316;16.174;2022-09-09T16:24:13;1.20;;;0.50;;
38859;SDS011;24609;48.316;16.174;2022-09-09T16:26:42;0.60;;;0.60;;
38859;SDS011;24609;48.316;16.174;2022-09-09T16:29:10;2.28;;;1.15;;
38859;SDS011;24609;48.316;16.174;2022-09-09T16:31:36;0.88;;;0.77;;
38859;SDS011;24609;48.316;16.174;2022-09-09T16:34:02;1.20;;;0.85;;
38859;SDS011;24609;48.316;16.174;2022-09-09T16:36:29;1.50;;;0.90;;
38859;SDS011;24609;48.316;16.174;2022-09-09T16:38:57;1.00;;;0.77;;
38859;SDS011;24609;48.316;16.174;2022-09-09T16:41:25;1.30;;;0.88;;
38859;SDS011;24609;48.316;16.174;2022-09-09T16:44:14;2.22;;;1.08;;
38859;SDS011;24609;48.316;16.174;2022-09-09T16:46:41;1.55;;;1.00;;
38859;SDS011;24609;48.316;16.174;2022-09-09T16:49:12;1.90;;;0.80;;
38859;SDS011;24609;48.316;16.174;2022-09-09T16:51:41;3.60;;;1.20;;
38859;SDS011;24609;48.316;16.174;2022-09-09T16:54:08;1.73;;;1.10;;
38859;SDS011;24609;48.316;16.174;2022-09-09T16:56:36;1.75;;;1.27;;
38859;SDS011;24609;48.316;16.174;2022-09-09T16:59:07;4.32;;;1.30;;
38859;SDS011;24609;48.316;16.174;2022-09-09T17:01:36;1.40;;;1.00;;
38859;SDS011;24609;48.316;16.174;2022-09-09T17:04:05;2.50;;;1.23;;
38859;SDS011;24609;48.316;16.174;2022-09-09T17:06:33;2.00;;;1.17;;
38859;SDS011;24609;48.316;16.174;2022-09-09T17:09:00;2.42;;;1.40;;
38859;SDS011;24609;48.316;16.174;2022-09-09T17:11:28;2.30;;;1.63;;
38859;SDS011;24609;48.316;16.174;2022-09-09T17:13:55;3.40;;;1.88;;
38859;SDS011;24609;48.316;16.174;2022-09-09T17:16:24;2.05;;;1.45;;
38859;SDS011;24609;48.316;16.174;2022-09-09T17:18:55;3.63;;;2.20;;
38859;SDS011;24609;48.316;16.174;2022-09-09T17:21:24;3.97;;;2.33;;
38859;SDS011;24609;48.316;16.174;2022-09-09T17:23:51;3.47;;;1.88;;
38859;SDS011;24609;48.316;16.174;2022-09-09T17:26:19;3.83;;;2.17;;
38859;SDS011;24609;48.316;16.174;2022-09-09T17:28:46;5.90;;;2.28;;
38859;SDS011;24609;48.316;16.174;2022-09-09T17:31:13;5.30;;;1.98;;
38859;SDS011;24609;48.316;16.174;2022-09-09T17:33:41;4.57;;;2.08;;
38859;SDS011;24609;48.316;16.174;2022-09-09T17:36:13;3.28;;;1.85;;